sensor_id;sensor_type;location;lat;lon;timestamp;temperature;humidity
1181;DHT22;579;52.046;8.532;2022-12-18T00:00:30;-5.80;1.00
1181;DHT22;579;52.046;8.532;2022-12-18T00:02:57;-5.80;1.00
1181;DHT22;579;52.046;8.532;2022-12-18T00:05:23;-5.70;1.00
1181;DHT22;579;52.046;8.532;2022-12-18T00:07:49;-5.70;1.00
1181;DHT22;579;52.046;8.532;2022-12-18T00:14:40;-5.50;1.00
1181;DHT22;579;52.046;8.532;2022-12-18T00:17:09;-5.60;1.00
1181;DHT22;579;52.046;8.532;2022-12-18T00:19:36;-5.70;1.00
1181;DHT22;579;52.046;8.532;2022-12-18T00:22:02;-5.80;1.00
1181;DHT22;579;52.046;8.532;2022-12-18T00:24:28;-5.80;1.00
1181;DHT22;579;52.046;8.532;2022-12-18T00:26:55;-5.60;1.00
1181;DHT22;579;52.046;8.532;2022-12-18T00:29:21;-5.40;1.00
1181;DHT22;579;52.046;8.532;2022-12-18T00:34:38;-5.60;1.00
1181;DHT22;579;52.046;8.532;2022-12-18T00:37:04;-5.60;1.00
1181;DHT22;579;52.046;8.532;2022-12-18T00:39:30;-5.80;1.00
1181;DHT22;579;52.046;8.532;2022-12-18T00:41:56;-5.70;1.00
1181;DHT22;579;52.046;8.532;2022-12-18T00:44:41;-5.70;1.00
1181;DHT22;579;52.046;8.532;2022-12-18T00:47:07;-5.70;1.00
1181;DHT22;579;52.046;8.532;2022-12-18T00:49:33;-5.70;1.00
1181;DHT22;579;52.046;8.532;2022-12-18T00:56:11;-5.60;1.00
1181;DHT22;579;52.046;8.532;2022-12-18T00:58:38;-6.00;1.00
1181;DHT22;579;52.046;8.532;2022-12-18T01:01:04;-6.10;1.00
1181;DHT22;579;52.046;8.532;2022-12-18T01:03:30;-6.20;1.00
1181;DHT22;579;52.046;8.532;2022-12-18T01:05:57;-5.80;1.00
1181;DHT22;579;52.046;8.532;2022-12-18T01:08:23;-5.70;1.00
1181;DHT22;579;52.046;8.532;2022-12-18T01:10:50;-5.80;1.00
1181;DHT22;579;52.046;8.532;2022-12-18T01:15:50;-5.80;1.00
1181;DHT22;579;52.046;8.532;2022-12-18T01:18:17;-6.00;1.00
1181;DHT22;579;52.046;8.532;2022-12-18T01:20:43;-6.00;1.00
1181;DHT22;579;52.046;8.532;2022-12-18T01:23:09;-6.20;1.00
1181;DHT22;579;52.046;8.532;2022-12-18T01:25:36;-6.10;1.00
1181;DHT22;579;52.046;8.532;2022-12-18T01:28:02;-6.20;1.00
1181;DHT22;579;52.046;8.532;2022-12-18T01:30:29;-6.20;1.00
1181;DHT22;579;52.046;8.532;2022-12-18T01:37:11;-6.30;1.00
1181;DHT22;579;52.046;8.532;2022-12-18T01:39:37;-6.20;1.00
1181;DHT22;579;52.046;8.532;2022-12-18T01:42:05;-6.30;1.00
1181;DHT22;579;52.046;8.532;2022-12-18T01:45:05;-6.20;1.00
1181;DHT22;579;52.046;8.532;2022-12-18T01:47:36;-6.20;1.00
1181;DHT22;579;52.046;8.532;2022-12-18T01:50:07;-6.30;1.00
1181;DHT22;579;52.046;8.532;2022-12-18T01:58:01;-6.50;1.00
1181;DHT22;579;52.046;8.532;2022-12-18T02:00:28;-6.50;1.00
1181;DHT22;579;52.046;8.532;2022-12-18T02:02:55;-6.30;1.00
1181;DHT22;579;52.046;8.532;2022-12-18T02:05:29;-6.30;1.00
1181;DHT22;579;52.046;8.532;2022-12-18T02:08:08;-6.40;1.00
1181;DHT22;579;52.046;8.532;2022-12-18T02:10:43;-6.40;1.00
1181;DHT22;579;52.046;8.532;2022-12-18T02:13:18;-6.60;1.00
1181;DHT22;579;52.046;8.532;2022-12-18T02:16:02;-6.50;1.00
1181;DHT22;579;52.046;8.532;2022-12-18T02:18:36;-6.40;1.00
1181;DHT22;579;52.046;8.532;2022-12-18T02:21:11;-6.60;1.00
1181;DHT22;579;52.046;8.532;2022-12-18T02:23:49;-6.90;1.00
1181;DHT22;579;52.046;8.532;2022-12-18T02:26:23;-6.70;1.00
1181;DHT22;579;52.046;8.532;2022-12-18T02:28:55;-6.80;1.00
1181;DHT22;579;52.046;8.532;2022-12-18T02:36:13;-6.90;1.00
1181;DHT22;579;52.046;8.532;2022-12-18T02:38:41;-6.60;1.00
1181;DHT22;579;52.046;8.532;2022-12-18T02:41:08;-6.60;1.00
1181;DHT22;579;52.046;8.532;2022-12-18T02:43:35;-6.70;1.00
1181;DHT22;579;52.046;8.532;2022-12-18T02:46:30;-6.70;1.00
1181;DHT22;579;52.046;8.532;2022-12-18T02:49:09;-7.00;1.00
1181;DHT22;579;52.046;8.532;2022-12-18T02:51:48;-7.10;1.00
1181;DHT22;579;52.046;8.532;2022-12-18T02:58:34;-6.70;1.00
1181;DHT22;579;52.046;8.532;2022-12-18T03:01:09;-6.80;1.00
1181;DHT22;579;52.046;8.532;2022-12-18T03:03:41;-6.80;1.00
1181;DHT22;579;52.046;8.532;2022-12-18T03:06:12;-6.90;1.00
1181;DHT22;579;52.046;8.532;2022-12-18T03:08:43;-6.90;1.00
1181;DHT22;579;52.046;8.532;2022-12-18T03:11:13;-6.80;1.00
1181;DHT22;579;52.046;8.532;2022-12-18T03:13:44;-6.70;1.00
1181;DHT22;579;52.046;8.532;2022-12-18T03:21:18;-7.10;1.00
1181;DHT22;579;52.046;8.532;2022-12-18T03:23:50;-7.20;1.00
1181;DHT22;579;52.046;8.532;2022-12-18T03:26:20;-7.30;1.00
1181;DHT22;579;52.046;8.532;2022-12-18T03:28:51;-7.30;1.00
1181;DHT22;579;52.046;8.532;2022-12-18T03:31:22;-7.30;1.00
1181;DHT22;579;52.046;8.532;2022-12-18T03:33:53;-7.30;1.00
1181;DHT22;579;52.046;8.532;2022-12-18T03:36:21;-7.30;1.00
1181;DHT22;579;52.046;8.532;2022-12-18T03:43:08;-7.00;1.00
1181;DHT22;579;52.046;8.532;2022-12-18T03:45:41;-7.00;1.00
1181;DHT22;579;52.046;8.532;2022-12-18T03:48:13;-6.90;1.00
1181;DHT22;579;52.046;8.532;2022-12-18T03:50:47;-7.00;1.00
1181;DHT22;579;52.046;8.532;2022-12-18T03:53:23;-7.10;1.00
1181;DHT22;579;52.046;8.532;2022-12-18T03:55:55;-7.20;1.00
1181;DHT22;579;52.046;8.532;2022-12-18T03:58:25;-7.30;1.00
1181;DHT22;579;52.046;8.532;2022-12-18T04:05:12;-7.40;1.00
1181;DHT22;579;52.046;8.532;2022-12-18T04:07:42;-7.40;1.00
1181;DHT22;579;52.046;8.532;2022-12-18T04:10:14;-7.30;1.00
1181;DHT22;579;52.046;8.532;2022-12-18T04:12:41;-7.40;1.00
1181;DHT22;579;52.046;8.532;2022-12-18T04:15:09;-7.30;1.00
1181;DHT22;579;52.046;8.532;2022-12-18T04:17:35;-7.40;1.00
1181;DHT22;579;52.046;8.532;2022-12-18T04:20:03;-7.40;1.00
1181;DHT22;579;52.046;8.532;2022-12-18T04:25:36;-7.00;1.00
1181;DHT22;579;52.046;8.532;2022-12-18T04:28:03;-7.10;1.00
1181;DHT22;579;52.046;8.532;2022-12-18T04:30:29;-7.10;1.00
1181;DHT22;579;52.046;8.532;2022-12-18T04:32:55;-7.10;1.00
1181;DHT22;579;52.046;8.532;2022-12-18T04:35:21;-7.30;1.00
1181;DHT22;579;52.046;8.532;2022-12-18T04:37:48;-7.30;1.00
1181;DHT22;579;52.046;8.532;2022-12-18T04:40:14;-7.50;1.00
1181;DHT22;579;52.046;8.532;2022-12-18T04:47:47;-7.60;1.00
1181;DHT22;579;52.046;8.532;2022-12-18T04:50:13;-7.30;1.00
1181;DHT22;579;52.046;8.532;2022-12-18T04:52:39;-7.50;1.00
1181;DHT22;579;52.046;8.532;2022-12-18T04:55:06;-7.40;1.00
1181;DHT22;579;52.046;8.532;2022-12-18T04:57:33;-7.20;1.00
1181;DHT22;579;52.046;8.532;2022-12-18T04:59:59;-7.30;1.00
1181;DHT22;579;52.046;8.532;2022-12-18T05:02:25;-7.30;1.00
1181;DHT22;579;52.046;8.532;2022-12-18T05:09:12;-7.70;1.00
1181;DHT22;579;52.046;8.532;2022-12-18T05:11:39;-7.70;1.00
1181;DHT22;579;52.046;8.532;2022-12-18T05:14:05;-7.70;1.00
1181;DHT22;579;52.046;8.532;2022-12-18T05:16:31;-7.70;1.00
1181;DHT22;579;52.046;8.532;2022-12-18T05:18:57;-7.80;1.00
1181;DHT22;579;52.046;8.532;2022-12-18T05:21:24;-7.80;1.00
1181;DHT22;579;52.046;8.532;2022-12-18T05:23:50;-7.80;1.00
1181;DHT22;579;52.046;8.532;2022-12-18T05:31:15;-7.90;1.00
1181;DHT22;579;52.046;8.532;2022-12-18T05:33:42;-7.90;1.00
1181;DHT22;579;52.046;8.532;2022-12-18T05:36:09;-7.80;1.00
1181;DHT22;579;52.046;8.532;2022-12-18T05:38:37;-7.70;1.00
1181;DHT22;579;52.046;8.532;2022-12-18T05:41:05;-7.70;1.00
1181;DHT22;579;52.046;8.532;2022-12-18T05:43:34;-7.70;1.00
1181;DHT22;579;52.046;8.532;2022-12-18T05:46:04;-7.30;1.00
1181;DHT22;579;52.046;8.532;2022-12-18T05:53:12;-7.60;1.00
1181;DHT22;579;52.046;8.532;2022-12-18T05:55:40;-7.60;1.00
1181;DHT22;579;52.046;8.532;2022-12-18T05:58:09;-7.60;1.00
1181;DHT22;579;52.046;8.532;2022-12-18T06:00:38;-7.50;1.00
1181;DHT22;579;52.046;8.532;2022-12-18T06:03:07;-7.50;1.00
1181;DHT22;579;52.046;8.532;2022-12-18T06:05:35;-7.20;1.00
1181;DHT22;579;52.046;8.532;2022-12-18T06:08:02;-7.30;1.00
1181;DHT22;579;52.046;8.532;2022-12-18T06:14:43;-7.30;1.00
1181;DHT22;579;52.046;8.532;2022-12-18T06:17:10;-7.30;1.00
1181;DHT22;579;52.046;8.532;2022-12-18T06:19:36;-7.30;1.00
1181;DHT22;579;52.046;8.532;2022-12-18T06:22:02;-7.50;1.00
1181;DHT22;579;52.046;8.532;2022-12-18T06:24:29;-7.40;1.00
1181;DHT22;579;52.046;8.532;2022-12-18T06:26:56;-7.50;1.00
1181;DHT22;579;52.046;8.532;2022-12-18T06:29:22;-7.60;1.00
1181;DHT22;579;52.046;8.532;2022-12-18T06:36:13;-7.70;1.00
1181;DHT22;579;52.046;8.532;2022-12-18T06:38:41;-7.80;1.00
1181;DHT22;579;52.046;8.532;2022-12-18T06:41:08;-7.80;1.00
1181;DHT22;579;52.046;8.532;2022-12-18T06:43:35;-7.60;1.00
1181;DHT22;579;52.046;8.532;2022-12-18T06:46:03;-7.80;1.00
1181;DHT22;579;52.046;8.532;2022-12-18T06:48:31;-7.90;1.00
1181;DHT22;579;52.046;8.532;2022-12-18T06:50:58;-7.80;1.00
1181;DHT22;579;52.046;8.532;2022-12-18T06:58:30;-7.50;1.00
1181;DHT22;579;52.046;8.532;2022-12-18T07:01:00;-7.60;1.00
1181;DHT22;579;52.046;8.532;2022-12-18T07:03:27;-7.50;1.00
1181;DHT22;579;52.046;8.532;2022-12-18T07:05:53;-7.60;1.00
1181;DHT22;579;52.046;8.532;2022-12-18T07:08:20;-7.60;1.00
1181;DHT22;579;52.046;8.532;2022-12-18T07:10:46;-7.60;1.00
1181;DHT22;579;52.046;8.532;2022-12-18T07:13:14;-7.70;1.00
1181;DHT22;579;52.046;8.532;2022-12-18T07:19:44;-7.50;1.00
1181;DHT22;579;52.046;8.532;2022-12-18T07:22:11;-7.60;1.00
1181;DHT22;579;52.046;8.532;2022-12-18T07:24:37;-7.70;1.00
1181;DHT22;579;52.046;8.532;2022-12-18T07:27:04;-7.70;1.00
1181;DHT22;579;52.046;8.532;2022-12-18T07:29:30;-7.70;1.00
1181;DHT22;579;52.046;8.532;2022-12-18T07:31:56;-7.60;1.00
1181;DHT22;579;52.046;8.532;2022-12-18T07:34:23;-7.50;1.00
1181;DHT22;579;52.046;8.532;2022-12-18T07:39:29;-7.50;1.00
1181;DHT22;579;52.046;8.532;2022-12-18T07:41:56;-7.40;1.00
1181;DHT22;579;52.046;8.532;2022-12-18T07:44:49;-7.40;1.00
1181;DHT22;579;52.046;8.532;2022-12-18T07:47:16;-7.40;1.00
1181;DHT22;579;52.046;8.532;2022-12-18T07:49:43;-7.30;1.00
1181;DHT22;579;52.046;8.532;2022-12-18T07:52:10;-7.20;1.00
1181;DHT22;579;52.046;8.532;2022-12-18T07:57:18;-7.10;1.00
1181;DHT22;579;52.046;8.532;2022-12-18T07:59:45;-6.90;1.00
1181;DHT22;579;52.046;8.532;2022-12-18T08:02:12;-7.00;1.00
1181;DHT22;579;52.046;8.532;2022-12-18T08:04:39;-6.90;1.00
1181;DHT22;579;52.046;8.532;2022-12-18T08:07:05;-6.90;1.00
1181;DHT22;579;52.046;8.532;2022-12-18T08:09:32;-6.80;1.00
1181;DHT22;579;52.046;8.532;2022-12-18T08:11:59;-6.90;1.00
1181;DHT22;579;52.046;8.532;2022-12-18T08:18:41;-6.80;1.00
1181;DHT22;579;52.046;8.532;2022-12-18T08:21:09;-6.80;1.00
1181;DHT22;579;52.046;8.532;2022-12-18T08:23:36;-6.90;1.00
1181;DHT22;579;52.046;8.532;2022-12-18T08:26:04;-6.60;1.00
1181;DHT22;579;52.046;8.532;2022-12-18T08:28:31;-6.40;1.00
1181;DHT22;579;52.046;8.532;2022-12-18T08:30:58;-6.40;1.00
1181;DHT22;579;52.046;8.532;2022-12-18T08:33:26;-6.40;1.00
1181;DHT22;579;52.046;8.532;2022-12-18T08:38:33;-6.00;1.00
1181;DHT22;579;52.046;8.532;2022-12-18T08:41:00;-5.40;1.00
1181;DHT22;579;52.046;8.532;2022-12-18T08:43:27;-5.20;1.00
1181;DHT22;579;52.046;8.532;2022-12-18T08:46:15;-5.10;1.00
1181;DHT22;579;52.046;8.532;2022-12-18T08:48:43;-5.20;1.00
1181;DHT22;579;52.046;8.532;2022-12-18T08:51:09;-5.10;1.00
1181;DHT22;579;52.046;8.532;2022-12-18T08:56:32;-4.70;1.00
1181;DHT22;579;52.046;8.532;2022-12-18T08:58:59;-4.30;1.00
1181;DHT22;579;52.046;8.532;2022-12-18T09:01:26;-4.40;1.00
1181;DHT22;579;52.046;8.532;2022-12-18T09:03:53;-4.20;1.00
1181;DHT22;579;52.046;8.532;2022-12-18T09:06:21;-3.90;1.00
1181;DHT22;579;52.046;8.532;2022-12-18T09:08:49;-3.80;1.00
1181;DHT22;579;52.046;8.532;2022-12-18T09:11:21;-3.50;1.00
1181;DHT22;579;52.046;8.532;2022-12-18T09:16:32;-3.10;1.00
1181;DHT22;579;52.046;8.532;2022-12-18T09:19:01;-3.10;1.00
1181;DHT22;579;52.046;8.532;2022-12-18T09:21:31;-3.20;1.00
1181;DHT22;579;52.046;8.532;2022-12-18T09:23:59;-2.80;1.00
1181;DHT22;579;52.046;8.532;2022-12-18T09:26:26;-2.70;1.00
1181;DHT22;579;52.046;8.532;2022-12-18T09:28:53;-2.60;1.00
1181;DHT22;579;52.046;8.532;2022-12-18T09:31:22;-2.60;1.00
1181;DHT22;579;52.046;8.532;2022-12-18T09:38:18;-2.30;1.00
1181;DHT22;579;52.046;8.532;2022-12-18T09:40:47;-2.30;1.00
1181;DHT22;579;52.046;8.532;2022-12-18T09:43:17;-2.30;1.00
1181;DHT22;579;52.046;8.532;2022-12-18T09:45:47;-2.30;1.00
1181;DHT22;579;52.046;8.532;2022-12-18T09:48:19;-2.20;1.00
1181;DHT22;579;52.046;8.532;2022-12-18T09:50:51;-2.20;1.00
1181;DHT22;579;52.046;8.532;2022-12-18T09:56:17;-2.00;1.00
1181;DHT22;579;52.046;8.532;2022-12-18T09:58:48;-2.10;1.00
1181;DHT22;579;52.046;8.532;2022-12-18T10:01:22;-2.10;1.00
1181;DHT22;579;52.046;8.532;2022-12-18T10:03:50;-2.00;1.00
1181;DHT22;579;52.046;8.532;2022-12-18T10:06:22;-2.00;1.00
1181;DHT22;579;52.046;8.532;2022-12-18T10:08:54;-1.80;1.00
1181;DHT22;579;52.046;8.532;2022-12-18T10:15:52;-1.50;1.00
1181;DHT22;579;52.046;8.532;2022-12-18T10:18:38;-1.00;1.00
1181;DHT22;579;52.046;8.532;2022-12-18T10:21:17;-1.00;1.00
1181;DHT22;579;52.046;8.532;2022-12-18T10:23:51;-1.00;1.00
1181;DHT22;579;52.046;8.532;2022-12-18T10:26:23;-0.80;1.00
1181;DHT22;579;52.046;8.532;2022-12-18T10:28:51;-0.70;1.00
1181;DHT22;579;52.046;8.532;2022-12-18T10:34:10;-0.30;1.00
1181;DHT22;579;52.046;8.532;2022-12-18T10:36:38;0.20;1.00
1181;DHT22;579;52.046;8.532;2022-12-18T10:39:17;0.20;1.00
1181;DHT22;579;52.046;8.532;2022-12-18T10:41:45;0.30;1.00
1181;DHT22;579;52.046;8.532;2022-12-18T10:44:17;0.50;1.00
1181;DHT22;579;52.046;8.532;2022-12-18T10:46:46;0.60;1.00
1181;DHT22;579;52.046;8.532;2022-12-18T10:52:11;0.90;1.00
1181;DHT22;579;52.046;8.532;2022-12-18T10:54:47;1.00;1.00
1181;DHT22;579;52.046;8.532;2022-12-18T10:57:27;1.10;1.00
1181;DHT22;579;52.046;8.532;2022-12-18T10:59:58;1.30;1.00
1181;DHT22;579;52.046;8.532;2022-12-18T11:02:28;1.30;1.00
1181;DHT22;579;52.046;8.532;2022-12-18T11:05:02;1.50;1.00
1181;DHT22;579;52.046;8.532;2022-12-18T11:12:34;2.40;1.00
1181;DHT22;579;52.046;8.532;2022-12-18T11:15:01;2.70;1.00
1181;DHT22;579;52.046;8.532;2022-12-18T11:17:30;2.70;1.00
1181;DHT22;579;52.046;8.532;2022-12-18T11:19:58;2.50;1.00
1181;DHT22;579;52.046;8.532;2022-12-18T11:22:28;2.60;1.00
1181;DHT22;579;52.046;8.532;2022-12-18T11:24:59;2.60;1.00
1181;DHT22;579;52.046;8.532;2022-12-18T11:27:31;2.60;1.00
1181;DHT22;579;52.046;8.532;2022-12-18T11:34:09;2.60;1.00
1181;DHT22;579;52.046;8.532;2022-12-18T11:36:45;2.80;1.00
1181;DHT22;579;52.046;8.532;2022-12-18T11:39:17;2.60;1.00
1181;DHT22;579;52.046;8.532;2022-12-18T11:41:49;2.60;1.00
1181;DHT22;579;52.046;8.532;2022-12-18T11:44:42;2.60;1.00
1181;DHT22;579;52.046;8.532;2022-12-18T11:47:19;2.80;1.00
1181;DHT22;579;52.046;8.532;2022-12-18T11:54:13;2.70;1.00
1181;DHT22;579;52.046;8.532;2022-12-18T11:56:44;2.80;1.00
1181;DHT22;579;52.046;8.532;2022-12-18T11:59:24;2.40;1.00
1181;DHT22;579;52.046;8.532;2022-12-18T12:02:02;2.40;1.00
1181;DHT22;579;52.046;8.532;2022-12-18T12:04:56;2.30;1.00
1181;DHT22;579;52.046;8.532;2022-12-18T12:07:37;2.20;1.00
1181;DHT22;579;52.046;8.532;2022-12-18T12:14:51;2.50;1.00
1181;DHT22;579;52.046;8.532;2022-12-18T12:17:30;2.40;1.00
1181;DHT22;579;52.046;8.532;2022-12-18T12:20:08;2.40;1.00
1181;DHT22;579;52.046;8.532;2022-12-18T12:22:45;2.30;1.00
1181;DHT22;579;52.046;8.532;2022-12-18T12:25:31;2.30;1.00
1181;DHT22;579;52.046;8.532;2022-12-18T12:28:10;2.50;1.00
1181;DHT22;579;52.046;8.532;2022-12-18T12:33:49;2.40;1.00
1181;DHT22;579;52.046;8.532;2022-12-18T12:36:28;2.40;1.00
1181;DHT22;579;52.046;8.532;2022-12-18T12:39:10;2.40;1.00
1181;DHT22;579;52.046;8.532;2022-12-18T12:41:41;2.40;1.00
1181;DHT22;579;52.046;8.532;2022-12-18T12:44:29;2.50;1.00
1181;DHT22;579;52.046;8.532;2022-12-18T12:46:59;2.70;1.00
1181;DHT22;579;52.046;8.532;2022-12-18T12:53:21;2.50;1.00
1181;DHT22;579;52.046;8.532;2022-12-18T12:55:52;2.60;1.00
1181;DHT22;579;52.046;8.532;2022-12-18T12:58:27;2.50;1.00
1181;DHT22;579;52.046;8.532;2022-12-18T13:01:06;2.30;1.00
1181;DHT22;579;52.046;8.532;2022-12-18T13:03:46;2.40;1.00
1181;DHT22;579;52.046;8.532;2022-12-18T13:06:30;2.30;1.00
1181;DHT22;579;52.046;8.532;2022-12-18T13:13:20;2.10;1.00
1181;DHT22;579;52.046;8.532;2022-12-18T13:15:49;2.10;
1181;DHT22;579;52.046;8.532;2022-12-18T13:18:33;2.10;1.00
1181;DHT22;579;52.046;8.532;2022-12-18T13:21:10;2.10;1.00
1181;DHT22;579;52.046;8.532;2022-12-18T13:23:42;2.20;1.00
1181;DHT22;579;52.046;8.532;2022-12-18T13:26:30;2.30;1.00
1181;DHT22;579;52.046;8.532;2022-12-18T13:32:44;2.00;1.00
1181;DHT22;579;52.046;8.532;2022-12-18T13:35:38;2.10;1.00
1181;DHT22;579;52.046;8.532;2022-12-18T13:38:20;2.00;1.00
1181;DHT22;579;52.046;8.532;2022-12-18T13:40:57;2.10;1.00
1181;DHT22;579;52.046;8.532;2022-12-18T13:43:38;2.20;1.00
1181;DHT22;579;52.046;8.532;2022-12-18T13:46:22;2.20;1.00
1181;DHT22;579;52.046;8.532;2022-12-18T13:51:32;2.30;1.00
1181;DHT22;579;52.046;8.532;2022-12-18T13:54:01;2.40;1.00
1181;DHT22;579;52.046;8.532;2022-12-18T13:56:45;2.40;1.00
1181;DHT22;579;52.046;8.532;2022-12-18T13:59:16;2.60;1.00
1181;DHT22;579;52.046;8.532;2022-12-18T14:01:46;2.60;1.00
1181;DHT22;579;52.046;8.532;2022-12-18T14:04:21;2.50;1.00
1181;DHT22;579;52.046;8.532;2022-12-18T14:11:56;2.50;1.00
1181;DHT22;579;52.046;8.532;2022-12-18T14:14:41;2.50;1.00
1181;DHT22;579;52.046;8.532;2022-12-18T14:17:10;2.50;1.00
1181;DHT22;579;52.046;8.532;2022-12-18T14:19:42;2.40;1.00
1181;DHT22;579;52.046;8.532;2022-12-18T14:22:15;2.40;1.00
1181;DHT22;579;52.046;8.532;2022-12-18T14:24:44;2.50;1.00
1181;DHT22;579;52.046;8.532;2022-12-18T14:31:43;2.40;1.00
1181;DHT22;579;52.046;8.532;2022-12-18T14:34:15;2.40;1.00
1181;DHT22;579;52.046;8.532;2022-12-18T14:36:51;2.40;1.00
1181;DHT22;579;52.046;8.532;2022-12-18T14:39:19;2.30;1.00
1181;DHT22;579;52.046;8.532;2022-12-18T14:41:48;2.20;1.00
1181;DHT22;579;52.046;8.532;2022-12-18T14:44:15;2.30;1.00
1181;DHT22;579;52.046;8.532;2022-12-18T14:46:44;2.20;1.00
1181;DHT22;579;52.046;8.532;2022-12-18T14:49:43;2.10;1.00
1181;DHT22;579;52.046;8.532;2022-12-18T14:52:21;2.10;1.00
1181;DHT22;579;52.046;8.532;2022-12-18T14:54:50;2.10;1.00
1181;DHT22;579;52.046;8.532;2022-12-18T14:57:21;2.30;1.00
1181;DHT22;579;52.046;8.532;2022-12-18T14:59:49;2.40;1.00
1181;DHT22;579;52.046;8.532;2022-12-18T15:02:20;2.40;1.00
1181;DHT22;579;52.046;8.532;2022-12-18T15:09:42;2.30;1.00
1181;DHT22;579;52.046;8.532;2022-12-18T15:12:26;2.30;1.00
1181;DHT22;579;52.046;8.532;2022-12-18T15:15:02;2.20;1.00
1181;DHT22;579;52.046;8.532;2022-12-18T15:17:30;2.20;1.00
1181;DHT22;579;52.046;8.532;2022-12-18T15:20:01;2.20;1.00
1181;DHT22;579;52.046;8.532;2022-12-18T15:22:35;2.20;1.00
1181;DHT22;579;52.046;8.532;2022-12-18T15:29:39;2.10;1.00
1181;DHT22;579;52.046;8.532;2022-12-18T15:32:17;2.10;1.00
1181;DHT22;579;52.046;8.532;2022-12-18T15:34:46;1.80;1.00
1181;DHT22;579;52.046;8.532;2022-12-18T15:37:13;1.90;1.00
1181;DHT22;579;52.046;8.532;2022-12-18T15:39:39;1.80;1.00
1181;DHT22;579;52.046;8.532;2022-12-18T15:42:08;2.10;1.00
1181;DHT22;579;52.046;8.532;2022-12-18T15:48:43;2.10;1.00
1181;DHT22;579;52.046;8.532;2022-12-18T15:51:14;2.20;1.00
1181;DHT22;579;52.046;8.532;2022-12-18T15:53:43;2.20;1.00
1181;DHT22;579;52.046;8.532;2022-12-18T15:56:11;2.30;1.00
1181;DHT22;579;52.046;8.532;2022-12-18T15:58:56;2.30;1.00
1181;DHT22;579;52.046;8.532;2022-12-18T16:01:26;2.40;1.00
1181;DHT22;579;52.046;8.532;2022-12-18T16:06:39;2.30;1.00
1181;DHT22;579;52.046;8.532;2022-12-18T16:09:06;2.60;1.00
1181;DHT22;579;52.046;8.532;2022-12-18T16:11:35;2.60;1.00
1181;DHT22;579;52.046;8.532;2022-12-18T16:14:15;2.40;1.00
1181;DHT22;579;52.046;8.532;2022-12-18T16:16:43;2.20;1.00
1181;DHT22;579;52.046;8.532;2022-12-18T16:19:10;2.50;1.00
1181;DHT22;579;52.046;8.532;2022-12-18T16:21:37;2.30;1.00
1181;DHT22;579;52.046;8.532;2022-12-18T16:24:24;2.60;1.00
1181;DHT22;579;52.046;8.532;2022-12-18T16:26:52;2.70;1.00
1181;DHT22;579;52.046;8.532;2022-12-18T16:29:21;2.70;1.00
1181;DHT22;579;52.046;8.532;2022-12-18T16:31:52;2.80;1.00
1181;DHT22;579;52.046;8.532;2022-12-18T16:34:21;2.80;1.00
1181;DHT22;579;52.046;8.532;2022-12-18T16:36:49;2.70;1.00
1181;DHT22;579;52.046;8.532;2022-12-18T16:41:57;2.70;1.00
1181;DHT22;579;52.046;8.532;2022-12-18T16:44:23;2.90;1.00
1181;DHT22;579;52.046;8.532;2022-12-18T16:46:50;2.80;1.00
1181;DHT22;579;52.046;8.532;2022-12-18T16:49:18;3.00;1.00
1181;DHT22;579;52.046;8.532;2022-12-18T16:51:46;3.20;1.00
1181;DHT22;579;52.046;8.532;2022-12-18T16:54:13;3.20;1.00
1181;DHT22;579;52.046;8.532;2022-12-18T16:56:40;3.30;1.00
1181;DHT22;579;52.046;8.532;2022-12-18T17:01:46;3.30;1.00
1181;DHT22;579;52.046;8.532;2022-12-18T17:04:14;3.20;1.00
1181;DHT22;579;52.046;8.532;2022-12-18T17:06:43;2.90;1.00
1181;DHT22;579;52.046;8.532;2022-12-18T17:09:15;2.90;1.00
1181;DHT22;579;52.046;8.532;2022-12-18T17:11:43;2.90;1.00
1181;DHT22;579;52.046;8.532;2022-12-18T17:14:12;3.00;1.00
1181;DHT22;579;52.046;8.532;2022-12-18T17:16:41;3.10;1.00
1181;DHT22;579;52.046;8.532;2022-12-18T17:21:50;2.90;1.00
1181;DHT22;579;52.046;8.532;2022-12-18T17:24:18;2.90;1.00
1181;DHT22;579;52.046;8.532;2022-12-18T17:26:46;2.50;1.00
1181;DHT22;579;52.046;8.532;2022-12-18T17:29:15;2.30;1.00
1181;DHT22;579;52.046;8.532;2022-12-18T17:31:44;2.60;1.00
1181;DHT22;579;52.046;8.532;2022-12-18T17:34:12;2.80;1.00
1181;DHT22;579;52.046;8.532;2022-12-18T17:36:40;2.70;1.00
1181;DHT22;579;52.046;8.532;2022-12-18T17:41:48;2.90;1.00
1181;DHT22;579;52.046;8.532;2022-12-18T17:44:15;2.90;1.00
1181;DHT22;579;52.046;8.532;2022-12-18T17:46:43;3.20;1.00
1181;DHT22;579;52.046;8.532;2022-12-18T17:49:10;2.90;1.00
1181;DHT22;579;52.046;8.532;2022-12-18T17:51:39;3.00;1.00
1181;DHT22;579;52.046;8.532;2022-12-18T17:54:07;2.90;1.00
1181;DHT22;579;52.046;8.532;2022-12-18T17:56:35;2.70;1.00
1181;DHT22;579;52.046;8.532;2022-12-18T18:01:41;2.40;1.00
1181;DHT22;579;52.046;8.532;2022-12-18T18:04:09;2.80;1.00
1181;DHT22;579;52.046;8.532;2022-12-18T18:06:36;2.80;1.00
1181;DHT22;579;52.046;8.532;2022-12-18T18:09:02;3.00;1.00
1181;DHT22;579;52.046;8.532;2022-12-18T18:11:29;2.90;1.00
1181;DHT22;579;52.046;8.532;2022-12-18T18:14:16;2.80;1.00
1181;DHT22;579;52.046;8.532;2022-12-18T18:16:45;3.10;1.00
1181;DHT22;579;52.046;8.532;2022-12-18T18:19:41;3.00;1.00
1181;DHT22;579;52.046;8.532;2022-12-18T18:22:08;3.20;1.00
1181;DHT22;579;52.046;8.532;2022-12-18T18:24:35;3.10;1.00
1181;DHT22;579;52.046;8.532;2022-12-18T18:27:02;3.00;1.00
1181;DHT22;579;52.046;8.532;2022-12-18T18:29:29;3.10;1.00
1181;DHT22;579;52.046;8.532;2022-12-18T18:31:56;3.10;1.00
1181;DHT22;579;52.046;8.532;2022-12-18T18:34:26;3.40;1.00
1181;DHT22;579;52.046;8.532;2022-12-18T18:37:10;3.40;1.00
1181;DHT22;579;52.046;8.532;2022-12-18T18:39:37;3.00;1.00
1181;DHT22;579;52.046;8.532;2022-12-18T18:42:04;2.70;1.00
1181;DHT22;579;52.046;8.532;2022-12-18T18:44:31;2.50;1.00
1181;DHT22;579;52.046;8.532;2022-12-18T18:46:58;2.40;1.00
1181;DHT22;579;52.046;8.532;2022-12-18T18:49:26;2.40;1.00
1181;DHT22;579;52.046;8.532;2022-12-18T18:51:54;2.80;1.00
1181;DHT22;579;52.046;8.532;2022-12-18T18:56:57;2.50;1.00
1181;DHT22;579;52.046;8.532;2022-12-18T18:59:24;2.40;1.00
1181;DHT22;579;52.046;8.532;2022-12-18T19:01:52;2.40;1.00
1181;DHT22;579;52.046;8.532;2022-12-18T19:04:19;2.30;1.00
1181;DHT22;579;52.046;8.532;2022-12-18T19:06:46;2.40;1.00
1181;DHT22;579;52.046;8.532;2022-12-18T19:09:14;2.40;1.00
1181;DHT22;579;52.046;8.532;2022-12-18T19:11:41;2.30;1.00
1181;DHT22;579;52.046;8.532;2022-12-18T19:16:46;2.60;1.00
1181;DHT22;579;52.046;8.532;2022-12-18T19:19:13;2.20;1.00
1181;DHT22;579;52.046;8.532;2022-12-18T19:21:42;2.20;1.00
1181;DHT22;579;52.046;8.532;2022-12-18T19:24:09;2.20;1.00
1181;DHT22;579;52.046;8.532;2022-12-18T19:26:36;2.20;1.00
1181;DHT22;579;52.046;8.532;2022-12-18T19:29:05;2.20;1.00
1181;DHT22;579;52.046;8.532;2022-12-18T19:31:32;2.20;1.00
1181;DHT22;579;52.046;8.532;2022-12-18T19:34:43;2.00;1.00
1181;DHT22;579;52.046;8.532;2022-12-18T19:37:10;1.90;1.00
1181;DHT22;579;52.046;8.532;2022-12-18T19:39:37;2.00;1.00
1181;DHT22;579;52.046;8.532;2022-12-18T19:42:03;2.60;1.00
1181;DHT22;579;52.046;8.532;2022-12-18T19:44:30;2.60;1.00
1181;DHT22;579;52.046;8.532;2022-12-18T19:46:57;2.80;1.00
1181;DHT22;579;52.046;8.532;2022-12-18T19:49:24;2.50;1.00
1181;DHT22;579;52.046;8.532;2022-12-18T19:54:32;2.90;1.00
1181;DHT22;579;52.046;8.532;2022-12-18T19:56:59;2.70;1.00
1181;DHT22;579;52.046;8.532;2022-12-18T19:59:27;2.70;1.00
1181;DHT22;579;52.046;8.532;2022-12-18T20:01:54;2.80;1.00
1181;DHT22;579;52.046;8.532;2022-12-18T20:04:21;3.00;1.00
1181;DHT22;579;52.046;8.532;2022-12-18T20:06:51;3.10;1.00
1181;DHT22;579;52.046;8.532;2022-12-18T20:09:19;2.50;1.00
1181;DHT22;579;52.046;8.532;2022-12-18T20:14:25;2.10;1.00
1181;DHT22;579;52.046;8.532;2022-12-18T20:16:52;1.90;1.00
1181;DHT22;579;52.046;8.532;2022-12-18T20:19:18;2.00;1.00
1181;DHT22;579;52.046;8.532;2022-12-18T20:21:46;2.10;1.00
1181;DHT22;579;52.046;8.532;2022-12-18T20:24:13;2.30;1.00
1181;DHT22;579;52.046;8.532;2022-12-18T20:26:40;2.00;1.00
1181;DHT22;579;52.046;8.532;2022-12-18T20:29:07;2.00;1.00
1181;DHT22;579;52.046;8.532;2022-12-18T20:34:07;2.20;1.00